Time;durP1;ratioP1;P1;durP2;ratioP2;P2;SDS_P1;SDS_P2;PMS_P1;PMS_P2;Temp;Humidity;BMP_temperature;BMP_pressure;BME280_temperature;BME280_humidity;BME280_pressure;Samples;Min_cycle;Max_cycle;Signal;HPM_P1;HPM_P2
2023/09/09 00:03:42;;;;;;;;;;;24.90;70.30;;;;;;10568943;28;19939;-46
2023/09/09 00:08:44;;;;;;;;;;;24.90;70.20;;;;;;10564631;28;19936;-46
2023/09/09 00:13:46;;;;;;;;;;;25.00;70.20;;;;;;10580395;28;19932;-45
2023/09/09 00:18:48;;;;;;;;;;;24.90;70.10;;;;;;10579756;28;19932;-46
2023/09/09 00:23:49;;;;;;;;;;;24.90;70.10;;;;;;10578310;28;19940;-44
2023/09/09 00:28:51;;;;;;;;;;;24.90;70.10;;;;;;10582335;28;19985;-43
2023/09/09 00:33:53;;;;;;;;;;;24.90;70.10;;;;;;10574490;28;19932;-44
2023/09/09 00:38:55;;;;;;;;;;;24.90;70.10;;;;;;10574307;27;19939;-43
2023/09/09 00:43:57;;;;;;;;;;;24.90;70.00;;;;;;10576523;27;19939;-47
2023/09/09 00:49:00;;;;;;;;;;;24.90;70.00;;;;;;10562923;28;19940;-45
2023/09/09 00:54:02;;;;;;;;;;;24.90;69.80;;;;;;10577272;28;19935;-44
2023/09/09 00:59:04;;;;;;;;;;;24.90;69.80;;;;;;10559896;28;19932;-43
2023/09/09 01:04:06;;;;;;;;;;;24.90;69.80;;;;;;10572250;28;19939;-43
2023/09/09 01:09:08;;;;;;;;;;;24.90;69.70;;;;;;10570154;28;20383;-43
2023/09/09 01:14:11;;;;;;;;;;;24.90;69.60;;;;;;10561930;28;19951;-44
2023/09/09 01:19:15;;;;;;;;;;;24.90;69.70;;;;;;10578543;27;20682;-43
2023/09/09 01:24:17;;;;;;;;;;;24.90;70.60;;;;;;10557659;28;19965;-44
2023/09/09 01:29:19;;;;;;;;;;;24.90;69.10;;;;;;10571464;28;19932;-45
2023/09/09 01:34:20;;;;;;;;;;;24.90;68.90;;;;;;10553777;27;19932;-47
2023/09/09 01:39:23;;;;;;;;;;;24.80;68.90;;;;;;10565529;27;19939;-45
2023/09/09 01:44:24;;;;;;;;;;;24.90;68.90;;;;;;10574980;28;19939;-46
2023/09/09 01:49:26;;;;;;;;;;;24.90;68.90;;;;;;10566844;27;19932;-43
2023/09/09 01:54:28;;;;;;;;;;;24.80;68.90;;;;;;10554666;28;20379;-45
2023/09/09 01:59:29;;;;;;;;;;;24.80;68.60;;;;;;10553538;28;19940;-42
2023/09/09 02:04:31;;;;;;;;;;;24.80;68.50;;;;;;10557394;28;20267;-43
2023/09/09 02:09:33;;;;;;;;;;;24.80;68.40;;;;;;10573591;27;20201;-43
2023/09/09 02:14:35;;;;;;;;;;;24.80;68.30;;;;;;10574671;27;19939;-45
2023/09/09 02:19:36;;;;;;;;;;;24.80;68.20;;;;;;10566789;28;20406;-47
2023/09/09 02:24:38;;;;;;;;;;;24.80;68.10;;;;;;10558925;28;20155;-44
2023/09/09 02:29:40;;;;;;;;;;;24.80;68.10;;;;;;10571186;28;19939;-67
2023/09/09 02:34:42;;;;;;;;;;;24.80;68.00;;;;;;10562314;28;20025;-43
2023/09/09 02:39:44;;;;;;;;;;;24.80;68.00;;;;;;10557582;27;19932;-48
2023/09/09 02:44:46;;;;;;;;;;;24.80;67.90;;;;;;10550564;28;20416;-45
2023/09/09 02:49:50;;;;;;;;;;;24.80;67.90;;;;;;10561765;28;20386;-43
2023/09/09 02:54:53;;;;;;;;;;;24.80;67.80;;;;;;10552902;28;20307;-45
2023/09/09 02:59:55;;;;;;;;;;;24.80;67.80;;;;;;10586933;27;19936;-43
2023/09/09 03:04:57;;;;;;;;;;;24.80;67.70;;;;;;10544851;27;20387;-43
2023/09/09 03:09:58;;;;;;;;;;;24.80;67.60;;;;;;10565682;27;19939;-42
2023/09/09 03:15:03;;;;;;;;;;;24.80;67.40;;;;;;10561997;28;19936;-46
2023/09/09 03:20:05;;;;;;;;;;;24.80;67.40;;;;;;10570851;28;19932;-46
2023/09/09 03:25:08;;;;;;;;;;;24.80;67.30;;;;;;10562090;28;20394;-43
2023/09/09 03:30:10;;;;;;;;;;;24.80;67.20;;;;;;10565168;27;20452;-41
2023/09/09 03:35:11;;;;;;;;;;;24.80;67.20;;;;;;10565233;28;20033;-44
2023/09/09 03:40:13;;;;;;;;;;;24.80;67.00;;;;;;10566680;28;19938;-45
2023/09/09 03:45:15;;;;;;;;;;;24.80;67.00;;;;;;10561019;28;20501;-46
2023/09/09 03:50:16;;;;;;;;;;;24.80;67.10;;;;;;10568250;28;19940;-47
2023/09/09 03:55:18;;;;;;;;;;;24.70;66.90;;;;;;10564462;27;20299;-43
2023/09/09 04:00:20;;;;;;;;;;;24.70;66.80;;;;;;10571164;27;19932;-45
2023/09/09 04:05:23;;;;;;;;;;;24.70;66.70;;;;;;10555015;28;20027;-47
2023/09/09 04:10:24;;;;;;;;;;;24.70;66.60;;;;;;10556402;28;20031;-47
2023/09/09 04:15:26;;;;;;;;;;;24.80;66.70;;;;;;10579470;28;19939;-47
2023/09/09 04:20:28;;;;;;;;;;;24.70;66.80;;;;;;10581456;28;19932;-46
2023/09/09 04:25:29;;;;;;;;;;;24.70;67.00;;;;;;10570817;27;20606;-45
2023/09/09 04:30:31;;;;;;;;;;;24.70;67.20;;;;;;10570690;27;19932;-47
2023/09/09 04:35:33;;;;;;;;;;;24.70;67.20;;;;;;10580015;28;20522;-47
2023/09/09 04:40:39;;;;;;;;;;;24.70;67.40;;;;;;10580362;27;20772;-49
2023/09/09 04:51:01;;;;;;;;;;;24.70;67.80;;;;;;10616926;22;19940;-70
2023/09/09 04:56:03;;;;;;;;;;;24.70;67.80;;;;;;10414564;28;19939;-70
2023/09/09 05:01:05;;;;;;;;;;;24.70;68.00;;;;;;10406707;28;19933;-71
2023/09/09 05:06:08;;;;;;;;;;;24.70;68.10;;;;;;10411314;28;19985;-71
2023/09/09 05:11:10;;;;;;;;;;;24.60;68.30;;;;;;10417448;28;20475;-72
2023/09/09 05:16:12;;;;;;;;;;;24.60;68.30;;;;;;10406142;28;19934;-72
2023/09/09 05:21:13;;;;;;;;;;;24.70;68.60;;;;;;10415117;28;19996;-70
2023/09/09 05:26:15;;;;;;;;;;;24.60;68.60;;;;;;10405740;28;19957;-72
2023/09/09 05:31:17;;;;;;;;;;;24.60;68.60;;;;;;10408486;28;19981;-72
2023/09/09 05:36:19;;;;;;;;;;;24.60;68.60;;;;;;10409017;28;20300;-71
2023/09/09 05:41:21;;;;;;;;;;;24.70;68.70;;;;;;10409597;28;19934;-70
2023/09/09 05:46:23;;;;;;;;;;;24.70;68.80;;;;;;10399550;28;20411;-73
2023/09/09 05:51:25;;;;;;;;;;;24.70;68.80;;;;;;10407019;28;19933;-71
2023/09/09 05:56:27;;;;;;;;;;;24.70;68.90;;;;;;10418095;28;19972;-69
2023/09/09 06:01:28;;;;;;;;;;;24.70;68.80;;;;;;10407011;28;19939;-70
2023/09/09 06:06:30;;;;;;;;;;;24.70;68.90;;;;;;10402873;28;19933;-70
2023/09/09 06:11:32;;;;;;;;;;;24.70;68.90;;;;;;10403056;28;19933;-71
2023/09/09 06:16:33;;;;;;;;;;;24.70;68.90;;;;;;10399207;28;20061;-71
2023/09/09 06:21:35;;;;;;;;;;;24.70;68.90;;;;;;10400715;28;19940;-71
2023/09/09 06:26:37;;;;;;;;;;;24.70;69.00;;;;;;10409269;28;19968;-71
2023/09/09 06:31:39;;;;;;;;;;;24.70;68.90;;;;;;10410761;28;19933;-70
2023/09/09 06:36:41;;;;;;;;;;;24.70;69.00;;;;;;10413881;28;19933;-71
2023/09/09 06:41:42;;;;;;;;;;;24.70;68.90;;;;;;10407793;28;20359;-71
2023/09/09 06:46:44;;;;;;;;;;;24.70;68.80;;;;;;10405485;28;19940;-71
2023/09/09 06:51:47;;;;;;;;;;;24.70;69.00;;;;;;10398808;28;20360;-71
2023/09/09 06:56:49;;;;;;;;;;;24.70;68.80;;;;;;10394390;28;20327;-71
2023/09/09 07:01:51;;;;;;;;;;;24.70;69.00;;;;;;10403024;28;19938;-71
2023/09/09 07:06:53;;;;;;;;;;;24.70;69.00;;;;;;10413260;28;20370;-74
2023/09/09 07:12:14;;;;;;;;;;;24.80;69.10;;;;;;10406712;28;19934;-71
2023/09/09 07:17:18;;;;;;;;;;;24.70;69.00;;;;;;10397527;28;19977;-72
2023/09/09 07:22:19;;;;;;;;;;;24.80;69.10;;;;;;10405264;28;19933;-70
2023/09/09 07:27:21;;;;;;;;;;;24.80;69.10;;;;;;10406587;28;19941;-71
2023/09/09 07:32:24;;;;;;;;;;;24.80;69.10;;;;;;10405982;28;19956;-72
2023/09/09 07:37:25;;;;;;;;;;;24.80;70.40;;;;;;10413535;28;19933;-71
2023/09/09 07:42:30;;;;;;;;;;;24.70;70.50;;;;;;10407138;28;19933;-71
2023/09/09 07:47:32;;;;;;;;;;;24.50;71.60;;;;;;10404839;28;19933;-68
2023/09/09 07:52:34;;;;;;;;;;;24.50;72.20;;;;;;10412246;28;20431;-71
2023/09/09 07:57:36;;;;;;;;;;;24.50;72.70;;;;;;10425336;28;19941;-74
2023/09/09 08:02:38;;;;;;;;;;;24.50;73.50;;;;;;10394840;28;20253;-70
2023/09/09 08:07:41;;;;;;;;;;;24.60;73.80;;;;;;10407633;28;19942;-70
2023/09/09 08:12:43;;;;;;;;;;;24.60;74.00;;;;;;10409577;28;20423;-72
2023/09/09 08:17:44;;;;;;;;;;;24.60;73.90;;;;;;10393033;28;19934;-73
2023/09/09 08:22:47;;;;;;;;;;;24.60;74.00;;;;;;10384742;28;21490;-70
2023/09/09 08:27:49;;;;;;;;;;;24.60;74.20;;;;;;10425166;28;19941;-71
2023/09/09 08:32:51;;;;;;;;;;;24.60;74.20;;;;;;10415527;28;19933;-73
2023/09/09 08:37:53;;;;;;;;;;;24.60;74.20;;;;;;10410728;28;19993;-73
2023/09/09 08:43:12;;;;;;;;;;;24.60;74.30;;;;;;10407536;28;19933;-73
2023/09/09 08:48:17;;;;;;;;;;;24.50;74.00;;;;;;10400808;28;20397;-74
2023/09/09 08:53:28;;;;;;;;;;;24.50;74.10;;;;;;10408647;28;19934;-70
2023/09/09 08:58:29;;;;;;;;;;;24.60;74.10;;;;;;10395739;28;20162;-70
2023/09/09 09:03:35;;;;;;;;;;;24.50;73.70;;;;;;10399601;28;19941;-68
2023/09/09 09:09:02;;;;;;;;;;;24.50;73.60;;;;;;10399161;28;19941;-71
2023/09/09 09:14:05;;;;;;;;;;;24.60;72.80;;;;;;10396337;28;20443;-72
2023/09/09 09:19:18;;;;;;;;;;;24.60;72.60;;;;;;10413420;28;19973;-70
2023/09/09 09:24:26;;;;;;;;;;;24.70;72.90;;;;;;10407984;28;19938;-69
2023/09/09 09:29:37;;;;;;;;;;;24.70;72.50;;;;;;10401890;28;19933;-70
2023/09/09 09:34:40;;;;;;;;;;;24.70;72.50;;;;;;10411428;28;19940;-70
2023/09/09 09:39:44;;;;;;;;;;;24.80;72.40;;;;;;10412102;28;19940;-70
2023/09/09 09:44:45;;;;;;;;;;;24.80;72.30;;;;;;10412975;28;20393;-70
2023/09/09 09:49:51;;;;;;;;;;;24.90;71.90;;;;;;10413067;28;20029;-70
2023/09/09 09:54:53;;;;;;;;;;;25.00;71.90;;;;;;10395500;28;20016;-71
2023/09/09 09:59:56;;;;;;;;;;;25.00;71.50;;;;;;10413288;28;19933;-69
2023/09/09 10:04:58;;;;;;;;;;;25.10;71.30;;;;;;10407745;28;20311;-69
2023/09/09 10:10:00;;;;;;;;;;;25.20;71.10;;;;;;10420974;28;19934;-69
2023/09/09 10:15:02;;;;;;;;;;;25.20;71.00;;;;;;10408374;28;20413;-71
2023/09/09 10:20:05;;;;;;;;;;;25.30;71.00;;;;;;10399429;28;19933;-70
2023/09/09 10:25:10;;;;;;;;;;;25.30;70.80;;;;;;10401958;28;20422;-69
2023/09/09 10:30:13;;;;;;;;;;;25.40;70.90;;;;;;10409256;28;19943;-70
2023/09/09 10:35:17;;;;;;;;;;;25.40;70.70;;;;;;10409976;28;20769;-70
2023/09/09 10:40:20;;;;;;;;;;;25.50;70.60;;;;;;10425771;28;20453;-70
2023/09/09 10:45:28;;;;;;;;;;;25.50;70.60;;;;;;10412930;28;20411;-70
2023/09/09 10:50:50;;;;;;;;;;;25.50;71.60;;;;;;10407410;28;20455;-72
2023/09/09 10:56:15;;;;;;;;;;;25.50;70.50;;;;;;10405757;28;24710;-69
2023/09/09 11:01:24;;;;;;;;;;;25.50;70.50;;;;;;10397025;28;19933;-69
2023/09/09 11:06:31;;;;;;;;;;;25.50;70.50;;;;;;10402805;28;20089;-70
2023/09/09 11:11:33;;;;;;;;;;;25.50;70.50;;;;;;10408277;28;19933;-70
2023/09/09 11:16:36;;;;;;;;;;;25.50;70.50;;;;;;10408389;28;19941;-69
2023/09/09 11:21:44;;;;;;;;;;;25.50;70.50;;;;;;10409682;28;20324;-69
2023/09/09 11:26:49;;;;;;;;;;;25.50;70.50;;;;;;10410779;28;19933;-69
2023/09/09 11:31:52;;;;;;;;;;;25.50;70.50;;;;;;10412961;28;19940;-70
2023/09/09 11:36:55;;;;;;;;;;;25.60;70.70;;;;;;10397982;28;19934;-65
2023/09/09 11:41:56;;;;;;;;;;;25.60;70.70;;;;;;10411647;28;19933;-65
2023/09/09 11:46:58;;;;;;;;;;;25.50;70.50;;;;;;10413228;28;20304;-65
2023/09/09 11:52:00;;;;;;;;;;;25.60;70.80;;;;;;10406075;28;19940;-65
2023/09/09 11:57:06;;;;;;;;;;;25.60;70.80;;;;;;10417072;28;20475;-67
2023/09/09 12:02:07;;;;;;;;;;;25.60;70.80;;;;;;10403482;28;19934;-65
2023/09/09 12:07:10;;;;;;;;;;;25.50;70.70;;;;;;10401298;28;19956;-66
2023/09/09 12:12:12;;;;;;;;;;;25.50;70.70;;;;;;10405008;28;20125;-64
2023/09/09 12:17:14;;;;;;;;;;;25.50;70.80;;;;;;10403907;28;19939;-66
2023/09/09 12:22:26;;;;;;;;;;;25.50;70.80;;;;;;10404681;28;20119;-65
2023/09/09 12:27:44;;;;;;;;;;;25.50;70.80;;;;;;10406381;28;19934;-66
2023/09/09 12:32:45;;;;;;;;;;;25.50;70.90;;;;;;10410508;28;20008;-67
2023/09/09 12:37:47;;;;;;;;;;;25.50;70.80;;;;;;10410659;28;19939;-65
2023/09/09 12:42:49;;;;;;;;;;;25.50;70.90;;;;;;10411971;28;19941;-66
2023/09/09 12:48:07;;;;;;;;;;;25.60;71.00;;;;;;10410463;28;20471;-66
2023/09/09 12:53:10;;;;;;;;;;;25.60;71.00;;;;;;10410536;28;19933;-66
2023/09/09 12:58:13;;;;;;;;;;;25.60;70.90;;;;;;10411371;28;19933;-66
2023/09/09 13:03:15;;;;;;;;;;;25.60;71.00;;;;;;10411218;28;19940;-66
2023/09/09 13:08:17;;;;;;;;;;;25.60;71.00;;;;;;10399518;28;20024;-66
2023/09/09 13:13:19;;;;;;;;;;;25.60;71.00;;;;;;10412889;28;19956;-66
2023/09/09 13:18:21;;;;;;;;;;;25.60;71.10;;;;;;10410009;28;19942;-68
2023/09/09 13:23:23;;;;;;;;;;;25.60;71.00;;;;;;10412585;28;19981;-65
2023/09/09 13:28:25;;;;;;;;;;;25.60;70.80;;;;;;10411775;28;19973;-66
2023/09/09 13:33:27;;;;;;;;;;;25.60;71.00;;;;;;10403684;28;20483;-65
2023/09/09 13:38:29;;;;;;;;;;;25.60;70.80;;;;;;10407797;28;19980;-66
2023/09/09 13:43:30;;;;;;;;;;;25.60;70.80;;;;;;10409307;28;20533;-67
2023/09/09 13:48:32;;;;;;;;;;;25.70;70.70;;;;;;10413897;28;19937;-67
2023/09/09 13:53:34;;;;;;;;;;;25.70;70.70;;;;;;10419258;28;20672;-67
2023/09/09 13:58:35;;;;;;;;;;;25.60;70.20;;;;;;10409109;28;20355;-67
2023/09/09 14:03:37;;;;;;;;;;;25.60;69.80;;;;;;10409211;28;20317;-67
2023/09/09 14:08:40;;;;;;;;;;;25.60;70.10;;;;;;10410848;28;20079;-67
2023/09/09 14:13:42;;;;;;;;;;;25.60;70.00;;;;;;10422956;28;19933;-68
2023/09/09 14:18:43;;;;;;;;;;;25.60;69.90;;;;;;10409458;28;19933;-68
2023/09/09 14:23:45;;;;;;;;;;;25.60;69.10;;;;;;10402638;28;20012;-68
2023/09/09 14:28:50;;;;;;;;;;;25.60;67.70;;;;;;10404241;28;20390;-68
2023/09/09 14:33:53;;;;;;;;;;;25.60;67.50;;;;;;10418903;28;19969;-68
2023/09/09 14:38:55;;;;;;;;;;;25.60;67.90;;;;;;10400621;28;19933;-68
2023/09/09 14:43:56;;;;;;;;;;;25.60;67.90;;;;;;10407127;28;19968;-68
2023/09/09 14:48:59;;;;;;;;;;;25.50;68.00;;;;;;10382171;28;19965;-69
2023/09/09 14:54:02;;;;;;;;;;;25.50;68.30;;;;;;10408509;28;19976;-68
2023/09/09 15:29:40;;;;;;;;;;;25.40;69.40;;;;;;10405100;28;19926;-66
2023/09/09 15:34:42;;;;;;;;;;;25.40;69.60;;;;;;10406234;28;20664;-66
2023/09/09 15:39:44;;;;;;;;;;;25.40;70.00;;;;;;10408611;28;20742;-67
2023/09/09 15:44:49;;;;;;;;;;;25.50;71.30;;;;;;10407165;28;19964;-67
2023/09/09 15:49:51;;;;;;;;;;;25.60;72.10;;;;;;10416456;28;19933;-68
2023/09/09 15:54:53;;;;;;;;;;;25.70;72.10;;;;;;10397204;28;20035;-68
2023/09/09 15:59:55;;;;;;;;;;;25.90;73.30;;;;;;10407459;28;20024;-67
2023/09/09 16:04:57;;;;;;;;;;;26.00;73.10;;;;;;10406300;28;19934;-68
2023/09/09 16:09:58;;;;;;;;;;;26.10;73.20;;;;;;10414054;28;20315;-68
2023/09/09 16:15:00;;;;;;;;;;;26.20;73.10;;;;;;10416219;28;20674;-65
2023/09/09 16:20:02;;;;;;;;;;;26.30;73.00;;;;;;10413910;28;20312;-63
2023/09/09 16:25:04;;;;;;;;;;;26.30;72.30;;;;;;10412866;28;20570;-67
2023/09/09 16:30:07;;;;;;;;;;;26.30;72.80;;;;;;10405842;28;20274;-65
2023/09/09 16:35:11;;;;;;;;;;;26.30;71.70;;;;;;10408896;28;19941;-66
2023/09/09 16:40:13;;;;;;;;;;;26.30;71.40;;;;;;10410829;28;20484;-66
2023/09/09 16:45:15;;;;;;;;;;;26.40;71.10;;;;;;10406446;28;20391;-64
2023/09/09 16:50:17;;;;;;;;;;;26.40;71.00;;;;;;10406928;28;20388;-62
2023/09/09 16:55:19;;;;;;;;;;;26.40;71.00;;;;;;10419628;28;20480;-63
2023/09/09 17:00:20;;;;;;;;;;;26.30;70.80;;;;;;10432949;28;19937;-63
2023/09/09 17:05:23;;;;;;;;;;;26.30;70.70;;;;;;10421836;28;20389;-63
2023/09/09 17:10:24;;;;;;;;;;;26.30;70.70;;;;;;10395809;28;19940;-65
2023/09/09 17:15:26;;;;;;;;;;;26.30;70.60;;;;;;10414321;28;19941;-67
2023/09/09 17:20:28;;;;;;;;;;;26.20;71.00;;;;;;10407642;28;19937;-66
2023/09/09 17:25:30;;;;;;;;;;;26.10;69.60;;;;;;10409890;28;19985;-66
2023/09/09 17:30:31;;;;;;;;;;;26.10;69.40;;;;;;10407116;28;19933;-66
2023/09/09 17:35:33;;;;;;;;;;;26.00;69.10;;;;;;10410284;28;19944;-67
2023/09/09 17:40:35;;;;;;;;;;;26.00;69.10;;;;;;10410020;28;19940;-64
2023/09/09 17:45:36;;;;;;;;;;;25.90;68.80;;;;;;10401980;28;19933;-63
2023/09/09 17:50:38;;;;;;;;;;;25.90;68.70;;;;;;10411803;28;19933;-64
2023/09/09 17:55:41;;;;;;;;;;;25.80;68.30;;;;;;10404826;28;19934;-64
2023/09/09 18:00:42;;;;;;;;;;;25.80;68.00;;;;;;10418922;28;20008;-64
2023/09/09 18:05:44;;;;;;;;;;;25.70;67.90;;;;;;10442533;28;19933;-64
2023/09/09 18:10:48;;;;;;;;;;;25.70;67.70;;;;;;10433859;28;20614;-65
2023/09/09 18:15:50;;;;;;;;;;;25.70;67.50;;;;;;10414721;28;19939;-64
2023/09/09 18:20:53;;;;;;;;;;;25.60;67.40;;;;;;10410353;28;19964;-67
2023/09/09 18:25:56;;;;;;;;;;;25.60;68.00;;;;;;10408836;28;19933;-66
2023/09/09 18:30:58;;;;;;;;;;;25.60;67.50;;;;;;10409055;28;19933;-68
2023/09/09 18:36:00;;;;;;;;;;;25.50;67.40;;;;;;10409251;28;20093;-67
2023/09/09 18:41:02;;;;;;;;;;;25.50;67.60;;;;;;10408220;28;20061;-67
2023/09/09 18:46:07;;;;;;;;;;;25.50;67.70;;;;;;10405915;28;20036;-68
2023/09/09 18:51:10;;;;;;;;;;;25.50;67.80;;;;;;10406557;28;19981;-69
2023/09/09 18:56:14;;;;;;;;;;;25.50;67.70;;;;;;10405343;28;19933;-69
2023/09/09 19:01:16;;;;;;;;;;;25.50;67.50;;;;;;10397947;28;20301;-65
2023/09/09 19:06:18;;;;;;;;;;;25.40;67.30;;;;;;10405099;28;20024;-68
2023/09/09 19:11:19;;;;;;;;;;;25.50;67.70;;;;;;10397752;28;19933;-69
2023/09/09 19:16:21;;;;;;;;;;;25.40;67.80;;;;;;10401104;28;20415;-69
2023/09/09 19:21:23;;;;;;;;;;;25.50;67.80;;;;;;10414777;28;19940;-69
2023/09/09 19:26:25;;;;;;;;;;;25.50;67.90;;;;;;10406241;28;19941;-68
2023/09/09 19:31:28;;;;;;;;;;;25.60;68.90;;;;;;10412973;28;19933;-68
2023/09/09 19:36:30;;;;;;;;;;;25.60;67.90;;;;;;10406677;28;20445;-68
2023/09/09 19:41:31;;;;;;;;;;;25.60;67.90;;;;;;10409277;28;19933;-68
2023/09/09 19:46:37;;;;;;;;;;;25.60;67.90;;;;;;10409809;28;20270;-69
2023/09/09 19:51:38;;;;;;;;;;;25.60;67.90;;;;;;10403693;28;19940;-68
2023/09/09 19:56:41;;;;;;;;;;;25.60;68.00;;;;;;10418508;28;20067;-70
2023/09/09 20:01:44;;;;;;;;;;;25.60;68.00;;;;;;10392508;28;20370;-69
2023/09/09 20:06:46;;;;;;;;;;;25.60;67.90;;;;;;10412784;28;19965;-68
2023/09/09 20:11:47;;;;;;;;;;;25.60;68.00;;;;;;10411781;28;20004;-68
2023/09/09 20:16:49;;;;;;;;;;;25.60;67.90;;;;;;10412411;28;19933;-69
2023/09/09 20:21:51;;;;;;;;;;;25.60;67.90;;;;;;10412743;28;20430;-68
2023/09/09 20:26:53;;;;;;;;;;;25.60;67.80;;;;;;10410370;28;20020;-65
2023/09/09 20:31:58;;;;;;;;;;;25.60;68.10;;;;;;10409672;28;19933;-71
2023/09/09 20:37:00;;;;;;;;;;;25.60;68.10;;;;;;10419646;28;20432;-66
2023/09/09 20:42:02;;;;;;;;;;;25.60;68.20;;;;;;10410377;28;19941;-67
2023/09/09 20:47:04;;;;;;;;;;;25.50;68.30;;;;;;10410490;28;19933;-67
2023/09/09 20:52:05;;;;;;;;;;;25.60;68.50;;;;;;10422766;28;20056;-72
2023/09/09 20:57:07;;;;;;;;;;;25.50;68.70;;;;;;10410166;28;20406;-70
2023/09/09 21:02:09;;;;;;;;;;;25.50;68.90;;;;;;10408824;28;19933;-70
2023/09/09 21:07:12;;;;;;;;;;;25.50;69.00;;;;;;10401413;28;20396;-69
2023/09/09 21:12:14;;;;;;;;;;;25.50;69.10;;;;;;10408479;28;19934;-69
2023/09/09 21:17:23;;;;;;;;;;;25.50;69.20;;;;;;10411281;28;19967;-70
2023/09/09 21:22:25;;;;;;;;;;;25.50;69.30;;;;;;10411114;28;19933;-70
2023/09/09 21:27:27;;;;;;;;;;;25.50;69.40;;;;;;10411225;28;19984;-70
2023/09/09 21:32:29;;;;;;;;;;;25.50;70.50;;;;;;10410909;28;20007;-69
2023/09/09 21:37:31;;;;;;;;;;;25.50;69.60;;;;;;10411414;28;19933;-70
2023/09/09 21:42:33;;;;;;;;;;;25.50;69.70;;;;;;10410930;28;20805;-70
2023/09/09 21:47:35;;;;;;;;;;;25.50;69.80;;;;;;10403846;28;19933;-71
2023/09/09 21:52:36;;;;;;;;;;;25.50;69.90;;;;;;10401346;28;19934;-71
2023/09/09 21:57:38;;;;;;;;;;;25.50;69.90;;;;;;10407153;28;20027;-70
2023/09/09 22:02:41;;;;;;;;;;;25.50;69.90;;;;;;10412553;28;20031;-69
2023/09/09 22:07:46;;;;;;;;;;;25.50;70.00;;;;;;10405324;28;19933;-69
2023/09/09 22:12:48;;;;;;;;;;;25.50;70.10;;;;;;10409997;28;20024;-68
2023/09/09 22:17:50;;;;;;;;;;;25.50;70.10;;;;;;10404252;28;20311;-71
2023/09/09 22:22:51;;;;;;;;;;;25.40;70.00;;;;;;10416821;28;19933;-69
2023/09/09 22:27:54;;;;;;;;;;;25.40;70.10;;;;;;10404439;28;19934;-69
2023/09/09 22:32:56;;;;;;;;;;;25.40;70.10;;;;;;10409632;28;19933;-70
2023/09/09 22:37:57;;;;;;;;;;;25.40;70.10;;;;;;10414055;28;19933;-69
2023/09/09 22:42:59;;;;;;;;;;;25.40;70.10;;;;;;10402044;28;20301;-68
2023/09/09 22:48:02;;;;;;;;;;;25.40;70.00;;;;;;10408356;28;21020;-69
2023/09/09 22:53:04;;;;;;;;;;;25.40;70.00;;;;;;10409170;28;20544;-69
2023/09/09 22:58:06;;;;;;;;;;;25.30;70.00;;;;;;10408767;28;20484;-69
2023/09/09 23:03:08;;;;;;;;;;;25.30;70.00;;;;;;10403596;28;19934;-70
2023/09/09 23:08:12;;;;;;;;;;;25.30;70.00;;;;;;10408241;28;20030;-71
2023/09/09 23:13:14;;;;;;;;;;;25.30;70.00;;;;;;10408062;28;20404;-71
2023/09/09 23:18:16;;;;;;;;;;;25.30;70.00;;;;;;10403992;28;19933;-69
2023/09/09 23:23:18;;;;;;;;;;;25.30;70.00;;;;;;10408633;28;20526;-69
2023/09/09 23:28:20;;;;;;;;;;;25.30;70.00;;;;;;10416985;28;19934;-69
2023/09/09 23:33:21;;;;;;;;;;;25.30;69.90;;;;;;10407189;28;20324;-70
2023/09/09 23:38:23;;;;;;;;;;;25.30;69.90;;;;;;10409301;28;19941;-67
2023/09/09 23:43:25;;;;;;;;;;;25.30;69.90;;;;;;10420688;28;19933;-67
2023/09/09 23:48:27;;;;;;;;;;;25.30;70.00;;;;;;10418358;28;19933;-67
2023/09/09 23:53:29;;;;;;;;;;;25.30;70.00;;;;;;10409007;28;19934;-67
2023/09/09 23:58:30;;;;;;;;;;;25.20;69.90;;;;;;10424117;28;20056;-67
